Time,TemperatureF,DewpointF,PressureIn,WindDirection,WindDirectionDegrees,WindSpeedMPH,WindSpeedGustMPH,Humidity,HourlyPrecipIn,Conditions,Clouds,dailyrainin,SoftwareType,DateUTC
2013-03-23 00:02:00,18.0,13.0,-100.00,SW,230,0.0,0.0,80,-99.99,,,-99.99,,2013-03-23 05:02:00,
2013-03-23 00:12:00,18.0,13.0,-100.00,SW,230,0.0,0.0,80,-99.99,,,-99.99,,2013-03-23 05:12:00,
2013-03-23 00:22:00,18.0,13.0,-100.00,SW,230,0.0,0.0,80,-99.99,,,-99.99,,2013-03-23 05:22:00,
2013-03-23 00:42:00,17.0,13.0,-100.00,SSW,200,0.0,0.0,85,-99.99,,,-99.99,,2013-03-23 05:42:00,
2013-03-23 00:52:00,17.0,13.0,-100.00,SSW,200,0.0,0.0,85,-99.99,,,-99.99,,2013-03-23 05:52:00,
2013-03-23 01:02:00,17.0,13.0,-100.00,SSW,200,0.0,0.0,85,-99.99,,,-99.99,,2013-03-23 06:02:00,
2013-03-23 01:12:00,17.0,13.0,-100.00,SSW,200,0.0,0.0,85,-99.99,,,-99.99,,2013-03-23 06:12:00,
2013-03-23 01:22:00,16.0,13.0,-100.00,ENE,65,0.0,0.0,86,-99.99,,,-99.99,,2013-03-23 06:22:00,
2013-03-23 01:42:00,16.0,13.0,-100.00,ENE,65,0.0,0.0,86,-99.99,,,-99.99,,2013-03-23 06:42:00,
2013-03-23 01:52:00,16.0,13.0,-100.00,ENE,65,0.0,0.0,86,-99.99,,,-99.99,,2013-03-23 06:52:00,
2013-03-23 02:02:00,16.0,13.0,-100.00,ENE,65,0.0,0.0,86,-99.99,,,-99.99,,2013-03-23 07:02:00,
2013-03-23 02:12:00,16.0,13.0,-100.00,ENE,65,0.0,0.0,86,-99.99,,,-99.99,,2013-03-23 07:12:00,
2013-03-23 06:42:00,17.0,14.0,-100.00,ENE,60,0.0,0.0,90,-99.99,,,-99.99,,2013-03-23 11:42:00,
2013-03-23 06:52:00,17.0,14.0,-100.00,ENE,60,0.0,0.0,90,-99.99,,,-99.99,,2013-03-23 11:52:00,
2013-03-23 07:02:00,17.0,14.0,-100.00,ENE,60,0.0,0.0,90,-99.99,,,-99.99,,2013-03-23 12:02:00,
2013-03-23 07:13:00,17.0,14.0,-100.00,ENE,60,0.0,0.0,90,-99.99,,,-99.99,,2013-03-23 12:13:00,
2013-03-23 07:22:00,17.0,14.0,-100.00,ENE,60,0.0,0.0,90,-99.99,,,-99.99,,2013-03-23 12:22:00,
2013-03-23 07:43:00,19.0,15.0,-100.00,ENE,75,0.0,0.0,86,-99.99,,,-99.99,,2013-03-23 12:43:00,
2013-03-23 07:53:00,19.0,15.0,-100.00,ENE,75,0.0,0.0,86,-99.99,,,-99.99,,2013-03-23 12:53:00,
2013-03-23 08:03:00,19.0,15.0,-100.00,ENE,75,0.0,0.0,86,-99.99,,,-99.99,,2013-03-23 13:03:00,
2013-03-23 08:12:00,19.0,15.0,-100.00,ENE,75,0.0,0.0,86,-99.99,,,-99.99,,2013-03-23 13:12:00,
2013-03-23 08:21:00,22.0,16.0,-100.00,East,90,0.0,0.0,78,-99.99,,,-99.99,,2013-03-23 13:21:00,
2013-03-23 08:43:00,22.0,16.0,-100.00,East,90,0.0,0.0,78,-99.99,,,-99.99,,2013-03-23 13:43:00,
2013-03-23 08:53:00,22.0,16.0,-100.00,East,90,0.0,0.0,78,-99.99,,,-99.99,,2013-03-23 13:53:00,
2013-03-23 09:03:00,22.0,16.0,-100.00,East,90,0.0,0.0,78,-99.99,,,-99.99,,2013-03-23 14:03:00,
2013-03-23 09:12:00,22.0,16.0,-100.00,East,90,0.0,0.0,78,-99.99,,,-99.99,,2013-03-23 14:12:00,
2013-03-23 10:21:00,31.0,18.0,-100.00,ENE,70,4.0,9.0,59,-99.99,,,-99.99,,2013-03-23 15:21:00,
2013-03-23 10:44:00,31.0,18.0,-100.00,ENE,70,4.0,9.0,59,-99.99,,,-99.99,,2013-03-23 15:44:00,
2013-03-23 10:53:00,31.0,18.0,-100.00,ENE,70,4.0,9.0,59,-99.99,,,-99.99,,2013-03-23 15:53:00,
2013-03-23 11:03:00,31.0,18.0,-100.00,ENE,70,4.0,9.0,59,-99.99,,,-99.99,,2013-03-23 16:03:00,
2013-03-23 11:13:00,31.0,18.0,-100.00,ENE,70,4.0,9.0,59,-99.99,,,-99.99,,2013-03-23 16:13:00,
2013-03-23 13:21:00,37.0,16.0,-100.00,NE,55,0.0,0.0,41,-99.99,,,-99.99,,2013-03-23 18:21:00,
2013-03-23 13:43:00,37.0,16.0,-100.00,NE,55,0.0,0.0,41,-99.99,,,-99.99,,2013-03-23 18:43:00,
2013-03-23 13:53:00,37.0,16.0,-100.00,NE,55,0.0,0.0,41,-99.99,,,-99.99,,2013-03-23 18:53:00,
2013-03-23 14:03:00,37.0,16.0,-100.00,NE,55,0.0,0.0,41,-99.99,,,-99.99,,2013-03-23 19:03:00,
2013-03-23 14:12:00,37.0,16.0,-100.00,NE,55,0.0,0.0,41,-99.99,,,-99.99,,2013-03-23 19:12:00,
2013-03-23 14:21:00,38.0,15.0,-100.00,East,90,0.0,0.0,39,-99.99,,,-99.99,,2013-03-23 19:21:00,
2013-03-23 14:43:00,38.0,15.0,-100.00,East,90,0.0,0.0,39,-99.99,,,-99.99,,2013-03-23 19:43:00,
2013-03-23 14:53:00,38.0,15.0,-100.00,East,90,0.0,0.0,39,-99.99,,,-99.99,,2013-03-23 19:53:00,
2013-03-23 15:03:00,38.0,15.0,-100.00,East,90,0.0,0.0,39,-99.99,,,-99.99,,2013-03-23 20:03:00,
2013-03-23 15:13:00,38.0,15.0,-100.00,East,90,0.0,0.0,39,-99.99,,,-99.99,,2013-03-23 20:13:00,
2013-03-23 15:22:00,38.0,14.0,-100.00,ESE,120,0.0,0.0,37,-99.99,,,-99.99,,2013-03-23 20:22:00,
2013-03-23 15:43:00,38.0,14.0,-100.00,ESE,120,0.0,0.0,37,-99.99,,,-99.99,,2013-03-23 20:43:00,
2013-03-23 15:53:00,38.0,14.0,-100.00,ESE,120,0.0,0.0,37,-99.99,,,-99.99,,2013-03-23 20:53:00,
2013-03-23 16:02:00,38.0,14.0,-100.00,ESE,120,0.0,0.0,37,-99.99,,,-99.99,,2013-03-23 21:02:00,
2013-03-23 16:12:00,38.0,14.0,-100.00,ESE,120,0.0,0.0,37,-99.99,,,-99.99,,2013-03-23 21:12:00,
2013-03-23 20:22:00,34.0,15.0,-100.00,WNW,285,0.0,0.0,44,-99.99,,,-99.99,,2013-03-24 01:22:00,
2013-03-23 20:43:00,34.0,15.0,-100.00,WNW,285,0.0,0.0,44,-99.99,,,-99.99,,2013-03-24 01:43:00,
2013-03-23 20:53:00,34.0,15.0,-100.00,WNW,285,0.0,0.0,44,-99.99,,,-99.99,,2013-03-24 01:53:00,
2013-03-23 21:03:00,34.0,15.0,-100.00,WNW,285,0.0,0.0,44,-99.99,,,-99.99,,2013-03-24 02:03:00,
2013-03-23 21:12:00,34.0,15.0,-100.00,WNW,285,0.0,0.0,44,-99.99,,,-99.99,,2013-03-24 02:12:00,
2013-03-23 21:22:00,33.0,16.0,-100.00,NW,305,0.0,0.0,49,-99.99,,,-99.99,,2013-03-24 02:22:00,
2013-03-23 21:43:00,33.0,16.0,-100.00,NW,305,0.0,0.0,49,-99.99,,,-99.99,,2013-03-24 02:43:00,
2013-03-23 21:52:00,33.0,16.0,-100.00,NW,305,0.0,0.0,49,-99.99,,,-99.99,,2013-03-24 02:52:00,
2013-03-23 22:02:00,33.0,16.0,-100.00,NW,305,0.0,0.0,49,-99.99,,,-99.99,,2013-03-24 03:02:00,
2013-03-23 22:12:00,33.0,16.0,-100.00,NW,305,0.0,0.0,49,-99.99,,,-99.99,,2013-03-24 03:12:00,
2013-03-23 23:43:00,33.0,18.0,-100.00,East,95,0.0,0.0,53,-99.99,,,-99.99,,2013-03-24 04:43:00,
2013-03-23 23:53:00,33.0,18.0,-100.00,East,95,0.0,0.0,53,-99.99,,,-99.99,,2013-03-24 04:53:00,